Time;durP1;ratioP1;P1;durP2;ratioP2;P2;SDS_P1;SDS_P2;PMS_P1;PMS_P2;Temp;Humidity;BMP_temperature;BMP_pressure;BME280_temperature;BME280_humidity;BME280_pressure;Samples;Min_cycle;Max_cycle;Signal;HPM_P1;HPM_P2
2022/09/18 00:01:50;;;;;;;11.13;0.77;;;8.00;99.90;;;;;;5087029;28;20039;-45
2022/09/18 00:04:15;;;;;;;14.00;0.93;;;8.10;99.90;;;;;;5086839;28;20044;-43
2022/09/18 00:06:43;;;;;;;15.07;2.05;;;8.70;99.90;;;;;;5068529;28;20040;-47
2022/09/18 00:09:13;;;;;;;10.48;1.10;;;9.00;99.90;;;;;;5086896;28;20049;-44
2022/09/18 00:11:43;;;;;;;14.43;1.10;;;7.90;99.90;;;;;;5086418;28;20032;-46
2022/09/18 00:14:12;;;;;;;11.95;0.82;;;8.50;99.90;;;;;;5086716;28;20118;-47
2022/09/18 00:16:39;;;;;;;8.75;0.80;;;7.70;99.90;;;;;;5085997;28;20043;-45
2022/09/18 00:19:05;;;;;;;16.27;1.48;;;8.10;99.90;;;;;;5086875;28;20036;-43
2022/09/18 00:21:31;;;;;;;8.57;0.77;;;7.60;99.90;;;;;;5086739;28;20768;-43
2022/09/18 00:23:59;;;;;;;13.38;0.77;;;8.70;99.90;;;;;;5086416;28;20040;-46
2022/09/18 00:26:26;;;;;;;13.00;0.82;;;7.70;99.90;;;;;;5086343;28;20052;-44
2022/09/18 00:28:53;;;;;;;20.58;1.20;;;8.40;99.90;;;;;;5085908;28;20040;-45
2022/09/18 00:31:24;;;;;;;18.77;3.45;;;7.60;99.90;;;;;;5086295;28;20121;-44
2022/09/18 00:33:50;;;;;;;11.73;0.80;;;8.40;99.90;;;;;;5090210;28;20050;-44
2022/09/18 00:36:17;;;;;;;14.65;1.67;;;7.70;99.90;;;;;;5090013;28;20480;-47
2022/09/18 00:38:43;;;;;;;9.50;1.02;;;8.70;99.90;;;;;;5071276;28;20048;-45
2022/09/18 00:41:16;;;;;;;13.32;1.27;;;7.60;99.90;;;;;;5089731;28;20109;-44
2022/09/18 00:43:42;;;;;;;9.25;0.77;;;8.20;99.90;;;;;;5089468;28;20040;-46
2022/09/18 00:46:35;;;;;;;18.48;1.05;;;7.60;99.90;;;;;;5089791;28;20046;-43
2022/09/18 00:49:15;;;;;;;6.50;0.75;;;7.70;99.90;;;;;;5089309;28;20036;-44
2022/09/18 00:51:43;;;;;;;7.90;0.80;;;7.70;99.90;;;;;;5089480;28;20125;-43
2022/09/18 00:54:33;;;;;;;14.40;1.00;;;8.20;99.90;;;;;;5089440;28;20055;-44
2022/09/18 00:57:03;;;;;;;15.45;1.20;;;7.80;99.90;;;;;;5089599;28;20478;-45
2022/09/18 00:59:31;;;;;;;15.32;1.00;;;7.80;99.90;;;;;;5088874;28;20371;-44
2022/09/18 01:01:58;;;;;;;11.57;1.15;;;7.80;99.90;;;;;;5088880;28;20101;-44
2022/09/18 01:04:25;;;;;;;18.40;1.00;;;7.90;99.90;;;;;;5089347;28;20755;-44
2022/09/18 01:07:00;;;;;;;10.18;1.17;;;7.70;99.90;;;;;;5070800;28;20052;-44
2022/09/18 01:09:41;;;;;;;8.20;0.80;;;7.80;99.90;;;;;;5089180;28;20475;-44
2022/09/18 01:12:22;;;;;;;12.30;0.98;;;7.80;99.90;;;;;;5088913;28;20040;-45
2022/09/18 01:15:02;;;;;;;8.85;0.98;;;7.60;99.90;;;;;;5088386;28;20050;-43
2022/09/18 01:17:50;;;;;;;15.43;1.50;;;7.60;99.90;;;;;;5090089;28;20032;-45
2022/09/18 01:20:30;;;;;;;12.77;1.55;;;7.80;99.90;;;;;;5090818;28;20044;-46
2022/09/18 01:23:32;;;;;;;9.75;1.15;;;7.70;99.90;;;;;;5089552;28;20394;-43
2022/09/18 01:26:36;;;;;;;16.08;1.30;;;7.90;99.90;;;;;;5089173;28;20048;-44
2022/09/18 01:29:26;;;;;;;16.50;1.77;;;7.90;99.90;;;;;;5089269;28;20083;-43
2022/09/18 01:32:31;;;;;;;15.65;1.40;;;7.90;99.90;;;;;;5089574;28;20386;-47
2022/09/18 01:35:05;;;;;;;14.57;1.33;;;7.90;99.90;;;;;;4986430;28;20093;-46
2022/09/18 01:37:47;;;;;;;8.68;0.75;;;7.90;99.90;;;;;;4986742;28;20451;-45
2022/09/18 01:40:41;;;;;;;11.82;0.98;;;8.10;99.90;;;;;;5051260;28;20054;-44
2022/09/18 01:43:10;;;;;;;13.15;1.35;;;7.90;99.90;;;;;;5088654;28;20121;-44
2022/09/18 01:45:46;;;;;;;14.77;1.33;;;7.90;99.90;;;;;;5088565;28;20497;-45
2022/09/18 01:48:23;;;;;;;17.42;1.40;;;7.90;99.90;;;;;;5088004;28;20036;-44
2022/09/18 01:50:55;;;;;;;13.88;1.13;;;7.90;99.90;;;;;;5088407;28;20552;-47
2022/09/18 01:53:26;;;;;;;19.08;1.55;;;7.80;99.90;;;;;;5089160;28;20047;-45
2022/09/18 01:56:00;;;;;;;21.17;3.08;;;7.80;99.90;;;;;;5069910;28;20048;-48
2022/09/18 01:58:27;;;;;;;8.15;1.02;;;8.00;99.90;;;;;;5088722;28;20660;-46
2022/09/18 02:00:57;;;;;;;10.75;1.40;;;8.00;99.90;;;;;;5088442;28;20092;-44
2022/09/18 02:03:38;;;;;;;15.15;1.50;;;7.80;99.90;;;;;;5088916;28;20047;-43
2022/09/18 02:06:09;;;;;;;24.35;2.58;;;7.80;99.90;;;;;;5069999;28;20107;-44
2022/09/18 02:08:42;;;;;;;15.73;1.35;;;7.80;99.90;;;;;;5087989;28;20067;-47
2022/09/18 02:11:12;;;;;;;16.90;1.90;;;8.80;99.90;;;;;;5087653;28;20119;-43
2022/09/18 02:13:46;;;;;;;15.07;0.90;;;8.60;99.90;;;;;;5088200;28;20042;-43
2022/09/18 02:16:33;;;;;;;20.35;3.63;;;7.80;99.90;;;;;;5088288;28;20071;-44
2022/09/18 02:19:06;;;;;;;13.93;2.95;;;7.90;99.90;;;;;;5087614;28;20098;-45
2022/09/18 02:21:32;;;;;;;11.40;1.20;;;8.10;99.90;;;;;;5087571;28;20039;-48
2022/09/18 02:24:04;;;;;;;14.73;1.23;;;7.80;99.90;;;;;;5087787;28;20044;-46
2022/09/18 02:26:32;;;;;;;15.40;1.33;;;7.80;99.90;;;;;;5087958;28;20032;-43
2022/09/18 02:29:01;;;;;;;13.65;1.00;;;7.80;99.90;;;;;;5087782;28;20047;-43
2022/09/18 02:31:27;;;;;;;13.35;0.98;;;7.80;99.90;;;;;;5069348;28;20396;-44
2022/09/18 02:33:53;;;;;;;17.80;1.30;;;8.90;99.90;;;;;;5087056;28;20378;-45
2022/09/18 02:36:37;;;;;;;22.85;1.67;;;7.90;99.90;;;;;;5087288;28;20061;-45
2022/09/18 02:39:12;;;;;;;12.63;1.10;;;7.90;99.90;;;;;;5087147;28;20052;-43
2022/09/18 02:41:57;;;;;;;17.67;1.30;;;8.00;99.90;;;;;;5087336;28;20051;-45
2022/09/18 02:44:49;;;;;;;14.35;1.10;;;8.00;99.90;;;;;;5087290;28;20393;-44
2022/09/18 02:47:30;;;;;;;15.60;1.35;;;8.00;99.90;;;;;;5087313;28;20489;-44
2022/09/18 02:50:17;;;;;;;12.27;1.50;;;8.10;99.90;;;;;;5068948;28;20124;-44
2022/09/18 02:52:54;;;;;;;16.08;0.90;;;8.00;99.90;;;;;;5087720;28;20043;-44
2022/09/18 02:55:28;;;;;;;11.20;1.40;;;8.10;99.90;;;;;;5086756;28;20047;-44
2022/09/18 02:57:59;;;;;;;12.93;1.83;;;8.70;99.90;;;;;;5086855;28;20044;-48
2022/09/18 03:00:27;;;;;;;14.82;1.58;;;8.10;99.90;;;;;;5086917;28;20119;-49
2022/09/18 03:02:57;;;;;;;14.07;1.45;;;8.10;99.90;;;;;;5086978;28;20050;-43
2022/09/18 03:05:23;;;;;;;11.23;1.88;;;8.10;99.90;;;;;;5087285;28;20054;-45
2022/09/18 03:07:49;;;;;;;16.42;1.48;;;8.00;99.90;;;;;;5087207;28;20052;-45
2022/09/18 03:10:15;;;;;;;12.00;1.92;;;8.70;99.90;;;;;;5087478;28;20055;-43
2022/09/18 03:12:41;;;;;;;10.95;1.73;;;8.20;99.90;;;;;;5087904;28;20430;-44
2022/09/18 03:15:07;;;;;;;13.90;2.15;;;8.10;99.90;;;;;;5087141;28;20486;-45
2022/09/18 03:17:33;;;;;;;16.48;2.47;;;8.10;99.90;;;;;;5087571;28;20087;-45
2022/09/18 03:19:58;;;;;;;10.05;1.02;;;8.20;99.90;;;;;;5087600;28;20048;-44
2022/09/18 03:22:24;;;;;;;14.45;2.08;;;8.20;99.90;;;;;;5087582;28;20504;-45
2022/09/18 03:24:50;;;;;;;12.60;1.10;;;8.20;99.90;;;;;;5088015;28;20058;-43
2022/09/18 03:27:16;;;;;;;14.10;1.15;;;8.20;99.90;;;;;;5087959;28;20449;-45
2022/09/18 03:29:44;;;;;;;14.20;2.72;;;8.40;99.90;;;;;;5087341;28;20036;-45
2022/09/18 03:32:10;;;;;;;13.32;1.15;;;8.30;99.90;;;;;;5087639;28;20051;-45
2022/09/18 03:34:37;;;;;;;15.30;1.40;;;8.40;99.90;;;;;;5069893;28;20075;-44
2022/09/18 03:37:02;;;;;;;14.40;1.35;;;8.60;99.90;;;;;;5086770;28;20518;-44
2022/09/18 03:39:28;;;;;;;14.05;1.05;;;8.60;99.90;;;;;;5087060;28;20048;-44
2022/09/18 03:41:54;;;;;;;13.18;1.80;;;8.70;99.90;;;;;;5086456;28;20036;-44
2022/09/18 03:44:19;;;;;;;11.20;0.95;;;8.60;99.90;;;;;;5086532;28;20047;-44
2022/09/18 03:46:45;;;;;;;15.32;2.03;;;8.60;99.90;;;;;;5087620;28;20481;-47
2022/09/18 03:49:11;;;;;;;15.38;1.88;;;8.70;99.90;;;;;;5087302;28;20109;-45
2022/09/18 03:51:36;;;;;;;14.02;1.98;;;8.80;99.90;;;;;;5086550;28;20036;-45
2022/09/18 03:54:02;;;;;;;13.20;1.08;;;8.80;99.90;;;;;;5086530;28;20036;-45
2022/09/18 03:56:28;;;;;;;10.98;1.52;;;8.80;99.90;;;;;;5086539;28;20036;-44
2022/09/18 03:58:53;;;;;;;9.27;0.90;;;8.70;99.90;;;;;;5086628;28;20118;-44
2022/09/18 04:01:19;;;;;;;13.68;1.10;;;8.80;99.90;;;;;;5086273;28;20547;-44
2022/09/18 04:03:45;;;;;;;17.73;1.77;;;8.80;99.90;;;;;;5086509;28;20163;-46
2022/09/18 04:06:11;;;;;;;10.43;0.95;;;8.70;99.90;;;;;;5086673;28;20123;-44
2022/09/18 04:08:37;;;;;;;21.10;1.48;;;8.70;99.90;;;;;;5090462;28;20117;-44
2022/09/18 04:11:03;;;;;;;16.38;0.98;;;9.70;99.90;;;;;;5090675;28;20040;-44
2022/09/18 04:13:30;;;;;;;12.63;0.85;;;8.70;99.90;;;;;;5090251;28;20047;-45
2022/09/18 04:15:56;;;;;;;11.32;1.38;;;9.40;99.90;;;;;;5090929;28;20131;-44
2022/09/18 04:18:21;;;;;;;12.13;0.68;;;8.70;99.90;;;;;;5091078;28;20126;-45
2022/09/18 04:20:47;;;;;;;17.42;1.45;;;8.70;99.90;;;;;;5090761;28;20078;-45
2022/09/18 04:23:13;;;;;;;10.65;0.88;;;8.80;99.90;;;;;;5089739;28;20043;-43
2022/09/18 04:25:42;;;;;;;8.07;0.82;;;9.40;99.90;;;;;;5090513;28;20055;-45
2022/09/18 04:28:09;;;;;;;6.93;0.80;;;8.70;99.90;;;;;;5071410;28;20694;-43
2022/09/18 04:30:36;;;;;;;11.40;1.13;;;8.70;99.90;;;;;;5089440;28;20553;-45
2022/09/18 04:33:02;;;;;;;11.43;1.15;;;8.80;99.90;;;;;;5089907;28;20667;-44
2022/09/18 04:35:27;;;;;;;8.25;1.23;;;8.70;99.90;;;;;;5089378;28;20044;-43
2022/09/18 04:37:53;;;;;;;7.13;0.57;;;8.70;99.90;;;;;;5090059;28;20036;-43
2022/09/18 04:40:19;;;;;;;6.32;0.50;;;8.80;99.90;;;;;;5090244;28;20082;-45
2022/09/18 04:42:45;;;;;;;14.98;0.95;;;8.80;99.90;;;;;;5090362;28;20127;-46
2022/09/18 04:45:11;;;;;;;13.90;0.80;;;8.80;99.90;;;;;;5089458;28;20118;-43
2022/09/18 04:47:37;;;;;;;8.27;0.63;;;9.20;99.90;;;;;;5089786;28;20052;-44
2022/09/18 04:50:04;;;;;;;10.30;0.80;;;8.80;99.90;;;;;;5089182;28;20040;-44
2022/09/18 04:52:29;;;;;;;11.27;0.70;;;8.90;99.90;;;;;;5089457;28;20141;-43
2022/09/18 04:54:55;;;;;;;15.27;1.15;;;9.50;99.90;;;;;;5089002;28;20052;-44
2022/09/18 04:57:21;;;;;;;14.02;1.10;;;8.70;99.90;;;;;;5088858;28;20113;-44
2022/09/18 04:59:47;;;;;;;10.25;0.70;;;8.90;99.90;;;;;;5089292;28;20477;-44
2022/09/18 05:02:12;;;;;;;11.20;2.13;;;8.80;99.90;;;;;;5088854;28;20051;-43
2022/09/18 05:04:38;;;;;;;17.10;1.55;;;8.70;99.90;;;;;;5089230;28;20442;-44
2022/09/18 05:07:04;;;;;;;9.73;1.00;;;8.70;99.90;;;;;;5089330;28;20091;-44
2022/09/18 05:09:30;;;;;;;11.55;1.08;;;8.90;99.90;;;;;;5089804;28;20551;-44
2022/09/18 05:11:56;;;;;;;10.85;1.00;;;9.00;99.90;;;;;;5089300;28;20036;-43
2022/09/18 05:14:22;;;;;;;10.13;1.00;;;8.90;99.90;;;;;;5089169;28;20046;-44
2022/09/18 05:16:48;;;;;;;5.95;0.60;;;8.90;99.90;;;;;;5089448;28;20451;-44
2022/09/18 05:19:13;;;;;;;9.73;1.05;;;9.20;99.90;;;;;;5088799;28;20044;-45
2022/09/18 05:21:39;;;;;;;12.85;0.85;;;9.10;99.90;;;;;;5070592;28;20485;-44
2022/09/18 05:24:05;;;;;;;9.82;0.88;;;9.10;99.90;;;;;;5089116;28;20051;-43
2022/09/18 05:26:30;;;;;;;6.60;1.58;;;9.00;99.90;;;;;;5089484;28;20050;-44
2022/09/18 05:28:56;;;;;;;9.55;1.20;;;8.80;99.90;;;;;;5089033;28;20047;-45
2022/09/18 05:31:22;;;;;;;9.98;0.85;;;8.90;99.90;;;;;;5088527;28;20402;-45
2022/09/18 05:33:48;;;;;;;7.68;0.93;;;8.90;99.90;;;;;;5088353;28;20036;-45
2022/09/18 05:36:13;;;;;;;11.73;1.63;;;9.00;99.90;;;;;;5087877;28;20067;-43
2022/09/18 05:38:39;;;;;;;9.32;0.70;;;8.80;99.90;;;;;;5089055;28;20112;-44
2022/09/18 05:41:05;;;;;;;9.95;0.80;;;9.50;99.90;;;;;;5088839;28;20130;-43
2022/09/18 05:43:31;;;;;;;12.52;1.17;;;9.50;99.90;;;;;;5088272;28;20079;-44
2022/09/18 05:46:00;;;;;;;13.30;1.50;;;9.10;99.90;;;;;;5053881;28;20133;-44
2022/09/18 05:48:25;;;;;;;7.75;0.70;;;9.30;99.90;;;;;;5088146;28;20044;-44
2022/09/18 05:50:51;;;;;;;13.05;0.90;;;9.00;99.90;;;;;;5089118;28;20784;-44
2022/09/18 05:53:18;;;;;;;10.27;1.27;;;9.40;99.90;;;;;;5070011;28;20788;-45
2022/09/18 05:55:44;;;;;;;7.18;0.70;;;9.20;99.90;;;;;;5088566;28;20039;-45
2022/09/18 05:58:15;;;;;;;7.97;0.80;;;9.30;99.90;;;;;;5070385;28;20043;-45
2022/09/18 06:00:43;;;;;;;4.13;0.50;;;10.00;99.90;;;;;;5088839;28;20493;-43
2022/09/18 06:03:11;;;;;;;10.38;0.55;;;9.40;99.90;;;;;;5088382;28;20119;-45
2022/09/18 06:05:37;;;;;;;5.78;0.60;;;9.30;99.90;;;;;;5088404;28;20036;-44
2022/09/18 06:08:05;;;;;;;5.32;0.40;;;9.40;99.90;;;;;;5087391;28;20090;-44
2022/09/18 06:10:32;;;;;;;10.65;0.70;;;9.50;99.90;;;;;;5087302;28;20048;-43
2022/09/18 06:13:03;;;;;;;9.88;0.50;;;10.30;99.90;;;;;;5087890;28;20411;-45
2022/09/18 06:15:31;;;;;;;6.28;0.43;;;9.30;99.90;;;;;;5068787;28;20048;-44
2022/09/18 06:17:56;;;;;;;6.88;0.40;;;9.50;99.90;;;;;;5087609;28;20043;-43
2022/09/18 06:20:23;;;;;;;9.48;0.43;;;9.50;99.90;;;;;;5087139;28;20040;-44
2022/09/18 06:22:48;;;;;;;4.65;0.63;;;9.40;99.90;;;;;;5068822;28;20084;-45
2022/09/18 06:25:18;;;;;;;9.63;0.60;;;9.50;99.90;;;;;;5087839;28;20048;-45
2022/09/18 06:27:43;;;;;;;7.38;0.75;;;9.50;99.90;;;;;;5087593;28;20055;-43
2022/09/18 06:30:10;;;;;;;7.35;0.57;;;9.90;99.90;;;;;;5086517;28;20040;-45
2022/09/18 06:32:35;;;;;;;5.13;0.40;;;9.70;99.90;;;;;;5087419;28;20052;-44
2022/09/18 06:35:01;;;;;;;4.25;0.50;;;9.60;99.90;;;;;;5087168;28;20398;-43
2022/09/18 06:37:29;;;;;;;6.90;0.50;;;9.90;99.90;;;;;;5086971;28;20094;-45
2022/09/18 06:39:54;;;;;;;9.77;0.60;;;10.80;99.90;;;;;;5087444;28;20044;-45
2022/09/18 06:42:20;;;;;;;5.72;0.60;;;9.80;99.90;;;;;;5087466;28;20044;-45
2022/09/18 06:44:46;;;;;;;10.15;0.70;;;10.30;99.90;;;;;;5069087;28;20052;-44
2022/09/18 06:47:11;;;;;;;6.10;0.93;;;9.70;99.90;;;;;;5087944;28;20079;-44
2022/09/18 06:49:37;;;;;;;8.60;0.40;;;10.00;99.90;;;;;;5087469;28;20517;-45
2022/09/18 06:52:03;;;;;;;6.10;0.68;;;10.20;99.90;;;;;;5087792;28;20390;-44
2022/09/18 06:54:28;;;;;;;9.40;0.80;;;9.90;99.90;;;;;;5086974;28;20382;-46
2022/09/18 06:56:55;;;;;;;6.15;0.47;;;10.00;99.90;;;;;;5068639;28;20071;-45
2022/09/18 06:59:21;;;;;;;8.63;0.88;;;10.00;99.90;;;;;;5087016;28;20490;-48
2022/09/18 07:01:47;;;;;;;9.70;0.60;;;10.10;99.90;;;;;;5087002;28;20057;-45
2022/09/18 07:04:13;;;;;;;7.10;1.02;;;10.00;99.90;;;;;;5087021;28;20429;-47
2022/09/18 07:06:42;;;;;;;10.18;1.60;;;10.90;99.90;;;;;;5086446;28;20043;-44
2022/09/18 07:09:08;;;;;;;8.07;0.73;;;10.40;99.90;;;;;;5066049;28;20109;-43
2022/09/18 07:11:36;;;;;;;5.47;0.50;;;11.10;99.90;;;;;;5066387;28;20040;-43
2022/09/18 07:14:06;;;;;;;11.13;0.80;;;10.30;99.90;;;;;;5066789;28;20091;-43
2022/09/18 07:16:31;;;;;;;8.48;1.20;;;11.30;99.90;;;;;;5066160;28;20055;-43
2022/09/18 07:18:57;;;;;;;15.93;0.93;;;10.50;99.90;;;;;;5066437;28;20044;-42
2022/09/18 07:21:23;;;;;;;5.72;0.80;;;10.30;99.90;;;;;;5066335;28;20032;-45
2022/09/18 07:23:48;;;;;;;5.95;0.70;;;10.70;99.90;;;;;;5066555;28;20049;-43
2022/09/18 07:26:14;;;;;;;4.28;0.32;;;11.50;99.90;;;;;;5063641;28;20110;-43
2022/09/18 07:28:39;;;;;;;5.07;1.00;;;11.10;99.90;;;;;;5065906;28;20098;-43
2022/09/18 07:31:05;;;;;;;8.25;0.60;;;11.00;99.90;;;;;;5066049;28;20043;-42
2022/09/18 07:33:31;;;;;;;5.28;0.45;;;10.80;99.90;;;;;;5065721;28;20036;-44
2022/09/18 07:36:05;;;;;;;11.80;0.60;;;10.80;99.90;;;;;;5066376;28;20033;-43
2022/09/18 07:38:33;;;;;;;6.70;0.60;;;10.80;99.90;;;;;;5065616;28;20040;-43
2022/09/18 07:41:02;;;;;;;5.47;0.57;;;10.80;99.90;;;;;;5067546;28;20051;-43
2022/09/18 07:43:28;;;;;;;4.20;0.38;;;11.60;99.90;;;;;;5070143;28;20582;-43
2022/09/18 07:45:54;;;;;;;5.78;0.57;;;10.50;99.90;;;;;;5069454;28;20131;-47
2022/09/18 07:48:19;;;;;;;10.10;1.20;;;10.80;99.90;;;;;;5069935;28;20048;-44
2022/09/18 07:50:45;;;;;;;6.70;0.60;;;10.70;99.90;;;;;;5069853;28;20129;-44
2022/09/18 07:53:11;;;;;;;5.55;0.40;;;10.70;99.90;;;;;;5069599;28;20119;-44
2022/09/18 07:55:37;;;;;;;5.57;0.30;;;10.60;99.90;;;;;;5069677;28;20669;-44
2022/09/18 07:58:05;;;;;;;7.43;1.00;;;10.70;99.90;;;;;;5070265;28;20863;-45
2022/09/18 08:00:34;;;;;;;11.63;0.70;;;10.70;99.90;;;;;;5067379;28;20070;-45
2022/09/18 08:03:08;;;;;;;5.07;0.50;;;11.30;99.90;;;;;;5048053;28;20700;-44
2022/09/18 08:05:34;;;;;;;4.18;0.60;;;10.70;99.90;;;;;;5069245;28;20049;-45
2022/09/18 08:08:08;;;;;;;5.65;0.60;;;10.70;99.90;;;;;;5079117;28;20060;-46
2022/09/18 08:10:35;;;;;;;9.38;0.50;;;10.90;99.90;;;;;;5088297;28;20787;-44
2022/09/18 08:13:02;;;;;;;7.70;0.95;;;10.40;99.90;;;;;;5087956;28;20058;-46
2022/09/18 08:15:29;;;;;;;6.93;0.88;;;10.60;99.90;;;;;;5089405;28;20046;-43
2022/09/18 08:17:54;;;;;;;5.85;0.65;;;10.50;99.90;;;;;;5089601;28;20036;-45
2022/09/18 08:20:20;;;;;;;8.70;0.93;;;10.50;99.90;;;;;;5090152;28;20105;-46
2022/09/18 08:22:46;;;;;;;6.60;1.25;;;11.10;99.90;;;;;;5089461;28;20040;-47
2022/09/18 08:25:12;;;;;;;8.10;0.50;;;10.70;99.90;;;;;;5069502;28;20606;-44
2022/09/18 08:27:40;;;;;;;7.30;0.60;;;10.50;99.90;;;;;;5088581;28;20047;-45
2022/09/18 08:30:07;;;;;;;4.68;0.35;;;10.60;99.90;;;;;;5089625;28;20040;-43
2022/09/18 08:32:33;;;;;;;4.80;0.30;;;10.60;99.90;;;;;;5089927;28;20036;-45
2022/09/18 08:35:00;;;;;;;9.15;0.50;;;10.50;99.90;;;;;;5090021;28;20046;-44
2022/09/18 08:37:26;;;;;;;8.90;0.35;;;10.70;99.90;;;;;;5071404;28;20040;-44
2022/09/18 08:39:52;;;;;;;6.30;0.50;;;10.90;99.90;;;;;;5089690;28;20552;-43
2022/09/18 08:42:54;;;;;;;5.50;0.20;;;10.70;99.90;;;;;;5089298;28;20122;-46
2022/09/18 08:45:41;;;;;;;6.00;1.20;;;10.80;99.90;;;;;;5089628;28;20040;-45
2022/09/18 08:48:19;;;;;;;6.65;0.52;;;10.40;99.90;;;;;;5089279;28;20367;-44
2022/09/18 08:50:55;;;;;;;3.17;0.57;;;10.80;99.90;;;;;;5089237;28;20528;-46
2022/09/18 08:53:31;;;;;;;2.83;0.47;;;10.70;99.90;;;;;;5088521;28;20082;-44
2022/09/18 08:56:00;;;;;;;5.75;0.57;;;10.80;99.90;;;;;;5073583;28;20074;-50
2022/09/18 08:58:42;;;;;;;5.70;0.57;;;10.80;99.90;;;;;;5019472;28;20053;-43
2022/09/18 09:01:12;;;;;;;4.60;1.10;;;10.80;99.90;;;;;;5016124;28;20065;-41
2022/09/18 09:03:49;;;;;;;5.65;0.60;;;10.80;99.90;;;;;;5018589;28;20033;-43
2022/09/18 09:07:05;;;;;;;8.77;0.82;;;10.80;99.90;;;;;;5017946;28;20100;-43
2022/09/18 09:09:49;;;;;;;3.22;0.30;;;10.80;99.90;;;;;;4965413;28;20184;-43
2022/09/18 09:12:37;;;;;;;5.57;0.30;;;10.70;99.90;;;;;;4999841;28;20045;-44
2022/09/18 09:15:25;;;;;;;3.55;0.30;;;10.70;99.90;;;;;;4999238;28;20408;-39
2022/09/18 09:18:11;;;;;;;4.07;0.40;;;10.70;99.90;;;;;;4998649;28;20399;-38
2022/09/18 09:20:49;;;;;;;8.35;0.40;;;10.70;99.90;;;;;;4998253;28;20462;-38
2022/09/18 09:23:17;;;;;;;7.05;0.73;;;10.70;99.90;;;;;;5000215;28;20159;-38
2022/09/18 09:26:00;;;;;;;4.30;0.40;;;10.70;99.90;;;;;;4999306;28;20042;-41
2022/09/18 09:28:48;;;;;;;6.53;0.40;;;10.70;99.90;;;;;;4998483;28;20034;-39
2022/09/18 09:31:17;;;;;;;5.28;0.35;;;10.80;99.90;;;;;;4982361;28;20048;-42
2022/09/18 09:33:56;;;;;;;8.25;0.43;;;10.80;99.90;;;;;;4999614;28;20037;-40
2022/09/18 09:36:27;;;;;;;5.75;0.30;;;10.60;99.90;;;;;;4999282;28;20038;-49
2022/09/18 09:38:55;;;;;;;5.72;0.32;;;10.50;99.90;;;;;;4997845;28;20041;-40
2022/09/18 09:41:41;;;;;;;8.00;0.70;;;10.50;99.90;;;;;;4998054;28;20049;-43
2022/09/18 09:44:36;;;;;;;4.75;0.40;;;10.70;99.90;;;;;;4987317;28;20208;-41
2022/09/18 09:47:38;;;;;;;8.02;0.57;;;10.60;99.90;;;;;;4998609;28;20038;-41
2022/09/18 09:50:25;;;;;;;5.57;0.60;;;10.50;99.90;;;;;;4998727;28;20068;-41
2022/09/18 09:52:56;;;;;;;4.55;0.30;;;10.50;99.90;;;;;;4998296;28;20034;-41
2022/09/18 09:55:54;;;;;;;6.97;1.00;;;10.50;99.90;;;;;;4997663;28;20036;-41
2022/09/18 09:58:39;;;;;;;5.05;0.43;;;10.50;99.90;;;;;;4933794;28;20133;-39
2022/09/18 10:01:25;;;;;;;4.68;0.47;;;10.30;99.90;;;;;;4993634;28;20902;-42
2022/09/18 10:04:12;;;;;;;4.38;0.30;;;10.50;99.90;;;;;;4977104;28;20046;-40
2022/09/18 10:06:49;;;;;;;9.70;1.23;;;10.50;99.90;;;;;;4997274;28;20395;-42
2022/09/18 10:09:39;;;;;;;4.82;0.40;;;10.60;99.90;;;;;;4998457;28;20558;-42
2022/09/18 10:12:30;;;;;;;4.13;0.55;;;10.60;99.90;;;;;;4999209;28;20049;-41
2022/09/18 10:15:10;;;;;;;14.00;0.80;;;10.80;99.90;;;;;;4998171;28;20129;-42
2022/09/18 10:17:40;;;;;;;4.72;0.43;;;10.90;99.90;;;;;;4999535;28;20041;-43
2022/09/18 10:20:06;;;;;;;5.32;0.40;;;10.90;99.90;;;;;;4999942;28;20038;-41
2022/09/18 10:22:34;;;;;;;3.88;0.30;;;11.00;99.90;;;;;;4996772;28;20044;-44
2022/09/18 10:25:05;;;;;;;5.03;0.52;;;11.00;99.90;;;;;;4995612;28;20037;-42
2022/09/18 10:27:31;;;;;;;6.57;0.32;;;11.00;99.90;;;;;;4998727;28;20041;-42
2022/09/18 10:29:57;;;;;;;7.68;0.50;;;11.00;99.90;;;;;;4999420;28;20044;-43
2022/09/18 10:32:36;;;;;;;10.50;0.47;;;11.10;99.90;;;;;;4999854;28;20034;-42
2022/09/18 10:35:27;;;;;;;5.32;0.57;;;11.10;99.90;;;;;;4996605;28;20145;-48
2022/09/18 10:37:53;;;;;;;5.35;0.70;;;11.40;99.90;;;;;;4996860;28;20038;-52
2022/09/18 10:40:51;;;;;;;6.78;0.50;;;11.40;99.90;;;;;;4999671;28;20042;-46
2022/09/18 10:43:18;;;;;;;7.72;0.60;;;11.50;99.90;;;;;;4964828;28;20056;-40
2022/09/18 10:45:54;;;;;;;7.03;0.73;;;11.60;99.90;;;;;;4997614;28;20045;-40
2022/09/18 10:48:24;;;;;;;2.97;0.25;;;11.70;99.90;;;;;;4996753;28;20081;-41
2022/09/18 10:50:55;;;;;;;4.28;0.30;;;12.10;99.90;;;;;;4997281;28;20041;-39
2022/09/18 10:53:31;;;;;;;10.13;1.48;;;11.90;99.90;;;;;;4997314;28;20025;-40
2022/09/18 10:56:05;;;;;;;4.20;0.40;;;11.90;99.90;;;;;;4997509;28;20037;-41
2022/09/18 10:58:32;;;;;;;7.60;0.60;;;11.90;99.90;;;;;;4989075;28;20491;-45
2022/09/18 11:01:08;;;;;;;3.35;0.30;;;12.00;99.90;;;;;;5012241;28;20037;-40
2022/09/18 11:03:43;;;;;;;7.35;0.40;;;12.10;99.90;;;;;;5016440;28;20484;-41
2022/09/18 11:06:27;;;;;;;5.97;0.30;;;12.20;99.90;;;;;;5017712;28;20099;-40
2022/09/18 11:08:58;;;;;;;5.82;0.30;;;12.20;99.90;;;;;;5033968;28;20048;-39
2022/09/18 11:11:36;;;;;;;4.10;0.30;;;12.20;99.90;;;;;;5036202;28;20053;-41
2022/09/18 11:14:14;;;;;;;5.35;0.40;;;12.20;99.90;;;;;;5036471;28;20267;-51
2022/09/18 11:16:47;;;;;;;6.05;0.47;;;12.20;99.90;;;;;;5037322;28;20037;-40
2022/09/18 11:19:16;;;;;;;6.78;0.57;;;12.40;99.90;;;;;;5037595;28;20052;-44
2022/09/18 11:21:49;;;;;;;7.63;0.50;;;13.30;99.90;;;;;;5037642;28;20102;-53
2022/09/18 11:24:36;;;;;;;5.50;0.52;;;12.60;99.90;;;;;;5036805;28;20041;-43
2022/09/18 11:27:21;;;;;;;8.43;0.45;;;12.70;99.90;;;;;;5036616;28;20044;-42
2022/09/18 11:29:47;;;;;;;8.18;0.70;;;12.80;99.90;;;;;;5036577;28;20045;-42
2022/09/18 11:32:18;;;;;;;8.18;0.95;;;13.10;99.90;;;;;;5033505;28;20040;-43
2022/09/18 11:34:51;;;;;;;8.07;0.63;;;13.00;99.90;;;;;;5035725;28;20036;-43
2022/09/18 11:37:35;;;;;;;3.58;0.47;;;13.00;99.90;;;;;;5036437;28;20041;-47
2022/09/18 11:40:07;;;;;;;5.97;1.25;;;13.20;99.90;;;;;;5036861;28;20808;-38
2022/09/18 11:42:42;;;;;;;5.85;0.63;;;13.20;99.90;;;;;;5037472;28;20575;-39
2022/09/18 11:45:18;;;;;;;9.00;0.70;;;13.20;99.90;;;;;;5036876;28;20481;-39
2022/09/18 11:47:59;;;;;;;6.95;0.50;;;13.40;99.90;;;;;;5036163;28;20356;-43
2022/09/18 11:50:31;;;;;;;4.78;0.40;;;13.40;99.90;;;;;;5037075;28;20045;-46
2022/09/18 11:53:09;;;;;;;5.57;0.60;;;13.50;99.90;;;;;;5036793;28;20355;-44
2022/09/18 11:55:48;;;;;;;12.35;0.60;;;13.50;99.90;;;;;;5035865;28;20063;-46
2022/09/18 11:58:19;;;;;;;6.45;0.47;;;13.60;99.90;;;;;;5016463;28;20115;-52
2022/09/18 12:01:12;;;;;;;7.93;0.40;;;13.60;99.90;;;;;;5031779;28;20044;-47
2022/09/18 12:03:51;;;;;;;5.45;0.40;;;13.70;99.90;;;;;;5024946;28;20571;-39
2022/09/18 12:06:31;;;;;;;6.95;0.77;;;13.70;99.90;;;;;;5008208;28;20132;-38
2022/09/18 12:09:21;;;;;;;9.15;0.63;;;13.80;99.90;;;;;;5038542;28;20057;-37
2022/09/18 12:12:22;;;;;;;9.05;0.50;;;13.80;99.90;;;;;;5038741;28;20032;-40
2022/09/18 12:15:04;;;;;;;7.82;0.60;;;13.90;99.90;;;;;;5038586;28;20113;-53
2022/09/18 12:17:36;;;;;;;;;;;13.90;99.90;;;;;;5039367;28;20112;-38
2022/09/18 12:20:12;;;;;;;4.70;0.43;;;13.90;99.90;;;;;;5020485;28;19923;-49
2022/09/18 12:22:47;;;;;;;6.57;0.55;;;13.90;99.90;;;;;;5038801;28;20552;-38
2022/09/18 12:25:17;;;;;;;4.20;0.63;;;13.90;99.90;;;;;;5037949;28;20056;-47
2022/09/18 12:27:55;;;;;;;9.52;0.60;;;13.90;99.90;;;;;;5038243;28;20049;-41
2022/09/18 12:30:27;;;;;;;8.88;0.93;;;13.90;99.90;;;;;;5042004;28;20757;-43
2022/09/18 12:33:02;;;;;;;4.32;0.40;;;13.80;99.90;;;;;;5041733;28;20071;-43
2022/09/18 12:35:45;;;;;;;5.38;1.23;;;13.90;99.90;;;;;;5042334;28;20037;-41
2022/09/18 12:38:26;;;;;;;6.65;0.60;;;13.90;99.90;;;;;;5041606;28;20029;-40
2022/09/18 12:41:29;;;;;;;5.68;0.57;;;13.90;99.90;;;;;;5042600;28;20047;-43
2022/09/18 12:44:25;;;;;;;6.40;1.20;;;13.90;99.90;;;;;;5042599;28;21638;-51
2022/09/18 12:47:21;;;;;;;4.70;0.65;;;13.90;99.90;;;;;;5040509;28;20025;-54
2022/09/18 12:50:19;;;;;;;8.93;0.70;;;13.90;99.90;;;;;;5040979;28;20072;-43
2022/09/18 12:52:53;;;;;;;9.57;0.68;;;14.00;99.90;;;;;;5041130;28;20041;-45
2022/09/18 12:55:30;;;;;;;5.07;0.60;;;14.20;99.90;;;;;;5040871;28;20372;-43
2022/09/18 12:57:56;;;;;;;7.93;0.63;;;14.10;99.90;;;;;;5039919;28;20071;-46
2022/09/18 13:00:22;;;;;;;9.55;0.70;;;14.20;99.90;;;;;;5041710;28;20131;-42
2022/09/18 13:02:56;;;;;;;6.85;0.80;;;14.20;99.90;;;;;;5042210;28;20318;-41
2022/09/18 13:05:55;;;;;;;5.88;0.43;;;14.30;99.90;;;;;;5041292;28;20398;-42
2022/09/18 13:08:27;;;;;;;5.38;0.45;;;14.20;99.90;;;;;;5041151;28;21090;-44
2022/09/18 13:11:02;;;;;;;7.22;0.57;;;14.20;99.90;;;;;;5044282;28;20053;-54
2022/09/18 13:13:49;;;;;;;10.65;1.10;;;14.20;99.90;;;;;;5043012;28;20043;-44
2022/09/18 13:16:54;;;;;;;6.80;1.05;;;14.20;99.90;;;;;;5041896;28;20489;-44